createdAt,value
2023-05-12T00:01:34.295Z,14.77
2023-05-12T00:04:02.318Z,15.65
2023-05-12T00:06:32.033Z,15.70
2023-05-12T00:09:00.005Z,14.41
2023-05-12T00:11:27.933Z,14.03
2023-05-12T00:13:56.102Z,14.07
2023-05-12T00:16:24.104Z,13.84
2023-05-12T00:18:52.347Z,13.83
2023-05-12T00:21:20.512Z,13.71
2023-05-12T00:23:49.929Z,14.07
2023-05-12T00:26:17.938Z,13.73
2023-05-12T00:28:48.682Z,15.05
2023-05-12T00:31:16.695Z,14.81
2023-05-12T00:33:44.862Z,15.13
2023-05-12T00:36:12.734Z,14.78
2023-05-12T00:38:41.380Z,15.19
2023-05-12T00:41:10.609Z,13.60
2023-05-12T00:43:38.846Z,13.48
2023-05-12T00:46:07.242Z,13.42
2023-05-12T00:48:35.661Z,14.75
2023-05-12T00:51:04.109Z,14.93
2023-05-12T00:53:44.919Z,15.22
2023-05-12T00:56:18.540Z,15.34
2023-05-12T00:58:47.016Z,13.93
2023-05-12T01:01:16.391Z,14.86
2023-05-12T01:03:46.211Z,14.80
2023-05-12T01:06:19.126Z,14.89
2023-05-12T01:08:48.600Z,14.80
2023-05-12T01:11:19.190Z,14.43
2023-05-12T01:13:47.131Z,14.96
2023-05-12T01:16:18.326Z,14.88
2023-05-12T01:18:51.404Z,14.25
2023-05-12T01:21:20.457Z,13.44
2023-05-12T01:23:53.068Z,15.64
2023-05-12T01:26:22.902Z,14.99
2023-05-12T01:28:52.427Z,14.86
2023-05-12T01:31:21.395Z,15.21
2023-05-12T01:33:49.482Z,14.88
2023-05-12T01:36:17.339Z,14.09
2023-05-12T01:38:45.563Z,14.75
2023-05-12T01:41:13.477Z,14.19
2023-05-12T01:43:42.861Z,15.15
2023-05-12T01:46:16.820Z,15.51
2023-05-12T01:48:45.142Z,14.98
2023-05-12T01:51:13.184Z,14.89
2023-05-12T01:53:41.019Z,14.75
2023-05-12T01:56:08.945Z,14.94
2023-05-12T01:58:37.877Z,15.03
2023-05-12T02:01:07.336Z,15.13
2023-05-12T02:03:35.414Z,15.34
2023-05-12T02:06:03.652Z,14.24
2023-05-12T02:08:31.769Z,14.48
2023-05-12T02:11:07.056Z,14.74
2023-05-12T02:13:35.281Z,14.87
2023-05-12T02:16:03.848Z,14.56
2023-05-12T02:18:33.462Z,14.85
2023-05-12T02:21:01.446Z,14.83
2023-05-12T02:23:30.686Z,14.88
2023-05-12T02:25:59.320Z,14.67
2023-05-12T02:28:27.229Z,14.72
2023-05-12T02:30:55.253Z,14.43
2023-05-12T02:33:24.146Z,14.30
2023-05-12T02:35:53.537Z,13.98
2023-05-12T02:38:21.513Z,14.21
2023-05-12T02:40:50.337Z,14.61
2023-05-12T02:43:18.418Z,14.02
2023-05-12T02:45:46.575Z,14.98
2023-05-12T02:48:14.393Z,14.20
2023-05-12T02:50:42.262Z,13.98
2023-05-12T02:53:23.499Z,13.95
2023-05-12T02:55:51.843Z,13.56
2023-05-12T02:58:19.832Z,14.35
2023-05-12T03:00:54.080Z,14.69
2023-05-12T03:03:28.049Z,14.73
2023-05-12T03:05:56.585Z,14.01
2023-05-12T03:08:25.992Z,13.90
2023-05-12T03:10:54.025Z,14.83
2023-05-12T03:13:22.270Z,14.66
2023-05-12T03:15:50.170Z,13.20
2023-05-12T03:18:17.979Z,13.23
2023-05-12T03:20:45.985Z,13.13
2023-05-12T03:23:13.922Z,13.11
2023-05-12T03:25:43.288Z,12.86
2023-05-12T03:28:11.475Z,12.88
2023-05-12T03:30:39.589Z,13.13
2023-05-12T03:33:07.674Z,12.90
2023-05-12T03:35:35.544Z,13.25
2023-05-12T03:38:04.345Z,13.31
2023-05-12T03:40:32.591Z,13.27
2023-05-12T03:43:01.837Z,13.22
2023-05-12T03:45:29.723Z,14.25
2023-05-12T03:47:57.694Z,14.83
2023-05-12T03:50:25.944Z,14.77
2023-05-12T03:52:56.162Z,14.11
2023-05-12T03:55:24.193Z,14.05
2023-05-12T03:57:51.994Z,13.96
2023-05-12T04:00:22.361Z,14.37
2023-05-12T04:02:51.015Z,14.86
2023-05-12T04:05:18.977Z,14.28
2023-05-12T04:07:46.896Z,14.69
2023-05-12T04:10:14.818Z,14.69
2023-05-12T04:12:42.789Z,14.77
2023-05-12T04:15:11.871Z,14.88
2023-05-12T04:17:41.100Z,14.29
2023-05-12T04:20:10.145Z,13.67
2023-05-12T04:22:38.191Z,13.27
2023-05-12T04:25:07.505Z,12.99
2023-05-12T04:27:35.355Z,13.24
2023-05-12T04:30:03.378Z,14.39
2023-05-12T04:32:36.419Z,14.15
2023-05-12T04:35:06.529Z,14.32
2023-05-12T04:37:34.510Z,14.50
2023-05-12T04:40:02.898Z,14.94
2023-05-12T04:42:31.402Z,15.14
2023-05-12T04:44:59.563Z,15.37
2023-05-12T04:47:27.641Z,15.10
2023-05-12T04:49:55.716Z,14.63
2023-05-12T04:52:25.088Z,14.37
2023-05-12T04:54:53.348Z,14.40
2023-05-12T04:57:21.312Z,14.56
2023-05-12T04:59:49.345Z,15.26
2023-05-12T05:02:17.653Z,14.65
2023-05-12T05:04:46.388Z,14.54
2023-05-12T05:07:15.014Z,14.98
2023-05-12T05:09:44.606Z,14.94
2023-05-12T05:12:12.543Z,15.38
2023-05-12T05:14:40.458Z,15.36
2023-05-12T05:17:08.425Z,15.52
2023-05-12T05:19:49.771Z,15.05
2023-05-12T05:22:22.512Z,15.04
2023-05-12T05:24:51.993Z,14.99
2023-05-12T05:27:20.106Z,15.80
2023-05-12T05:29:47.990Z,15.15
2023-05-12T05:32:16.183Z,15.48
2023-05-12T05:34:44.871Z,15.86
2023-05-12T05:37:12.939Z,15.56
2023-05-12T05:39:40.858Z,15.30
2023-05-12T05:42:10.374Z,15.65
2023-05-12T05:44:38.221Z,15.65
2023-05-12T05:47:06.883Z,15.75
2023-05-12T05:49:35.673Z,16.33
2023-05-12T05:52:03.649Z,16.17
2023-05-12T05:54:32.213Z,16.02
2023-05-12T05:57:02.213Z,16.63
2023-05-12T05:59:33.253Z,16.46
2023-05-12T06:02:01.177Z,15.61
2023-05-12T06:04:29.205Z,15.89
2023-05-12T06:06:58.717Z,15.76
2023-05-12T06:09:26.751Z,15.58
2023-05-12T06:11:55.799Z,15.41
2023-05-12T06:14:23.810Z,15.74
2023-05-12T06:16:53.057Z,15.82
2023-05-12T06:19:20.987Z,15.77
2023-05-12T06:21:48.908Z,15.90
2023-05-12T06:24:16.852Z,16.05
2023-05-12T06:26:44.655Z,16.41
2023-05-12T06:29:12.699Z,16.31
2023-05-12T06:31:40.579Z,16.26
2023-05-12T06:34:11.166Z,16.07
2023-05-12T06:36:39.687Z,16.81
2023-05-12T06:39:07.519Z,16.69
2023-05-12T06:41:35.541Z,16.47
2023-05-12T06:44:06.726Z,16.50
2023-05-12T06:46:34.721Z,15.88
2023-05-12T06:49:02.622Z,16.55
2023-05-12T06:51:31.919Z,16.32
2023-05-12T06:54:00.950Z,16.35
2023-05-12T06:56:32.139Z,16.45
2023-05-12T06:59:02.593Z,16.25
2023-05-12T07:01:31.242Z,16.38
2023-05-12T07:04:00.173Z,16.07
2023-05-12T07:06:28.629Z,14.63
2023-05-12T07:08:57.838Z,15.54
2023-05-12T07:11:25.875Z,15.62
2023-05-12T07:13:53.849Z,15.15
2023-05-12T07:16:21.864Z,16.27
2023-05-12T07:18:49.993Z,16.33
2023-05-12T07:21:18.241Z,16.27
2023-05-12T07:23:46.134Z,16.00
2023-05-12T07:26:15.965Z,16.17
2023-05-12T07:28:43.952Z,16.50
2023-05-12T07:31:11.944Z,16.86
2023-05-12T07:33:39.894Z,16.64
2023-05-12T07:36:08.984Z,16.22
2023-05-12T07:38:37.216Z,16.17
2023-05-12T07:41:05.221Z,16.44
2023-05-12T07:43:35.039Z,16.73
2023-05-12T07:46:03.100Z,16.88
2023-05-12T07:48:30.981Z,16.30
2023-05-12T07:50:58.814Z,16.84
2023-05-12T07:53:26.703Z,17.26
2023-05-12T07:55:54.535Z,17.27
2023-05-12T07:58:22.623Z,17.79
2023-05-12T08:00:51.857Z,18.58
2023-05-12T08:03:19.813Z,18.28
2023-05-12T08:05:47.783Z,17.67
2023-05-12T08:08:17.042Z,18.06
2023-05-12T08:10:45.081Z,17.69
2023-05-12T08:13:12.939Z,17.66
2023-05-12T08:15:40.920Z,18.25
2023-05-12T08:18:10.926Z,18.36
2023-05-12T08:20:38.977Z,18.09
2023-05-12T08:23:06.948Z,17.53
2023-05-12T08:25:36.997Z,18.09
2023-05-12T08:28:04.931Z,18.04
2023-05-12T08:30:32.866Z,18.04
2023-05-12T08:33:01.678Z,18.33
2023-05-12T08:35:31.264Z,18.38
2023-05-12T08:37:59.325Z,18.65
2023-05-12T08:40:31.063Z,19.36
2023-05-12T08:43:08.014Z,18.57
2023-05-12T08:45:38.398Z,18.92
2023-05-12T08:48:10.351Z,19.91
2023-05-12T08:50:42.212Z,20.42
2023-05-12T08:53:12.339Z,20.68
2023-05-12T08:55:50.838Z,19.97
2023-05-12T08:58:40.018Z,18.13
2023-05-12T09:01:09.983Z,19.01
2023-05-12T09:03:38.216Z,18.88
2023-05-12T09:06:09.526Z,19.00
2023-05-12T09:08:37.897Z,20.08
2023-05-12T09:11:05.960Z,20.18
2023-05-12T09:13:41.055Z,19.87
2023-05-12T09:16:13.206Z,20.07
2023-05-12T09:18:49.995Z,20.37
2023-05-12T09:21:19.262Z,19.93
2023-05-12T09:23:54.942Z,20.29
2023-05-12T09:26:23.913Z,20.44
2023-05-12T09:28:54.150Z,20.31
2023-05-12T09:31:23.719Z,20.04
2023-05-12T09:33:52.800Z,20.82
2023-05-12T09:36:23.456Z,19.89
2023-05-12T09:39:00.462Z,20.01
2023-05-12T09:41:28.462Z,19.62
2023-05-12T09:43:56.594Z,20.47
2023-05-12T09:46:26.116Z,20.69
2023-05-12T09:48:57.237Z,21.06
2023-05-12T09:51:27.330Z,20.80
2023-05-12T09:53:55.125Z,21.72
2023-05-12T09:56:24.497Z,20.82
2023-05-12T09:58:52.662Z,21.13
2023-05-12T10:01:23.991Z,21.41
2023-05-12T10:03:54.527Z,21.36
2023-05-12T10:06:25.976Z,21.36
2023-05-12T10:09:01.272Z,21.32
2023-05-12T10:11:30.301Z,20.35
2023-05-12T10:14:00.185Z,21.83
2023-05-12T10:16:29.505Z,21.16
2023-05-12T10:18:57.644Z,21.97
2023-05-12T10:21:26.760Z,21.87
2023-05-12T10:23:56.534Z,21.69
2023-05-12T10:26:24.718Z,21.84
2023-05-12T10:28:54.166Z,21.93
2023-05-12T10:31:23.205Z,21.84
2023-05-12T10:33:58.681Z,21.87
2023-05-12T10:36:26.890Z,22.11
2023-05-12T10:38:56.267Z,22.37
2023-05-12T10:41:31.189Z,22.45
2023-05-12T10:43:59.243Z,22.92
2023-05-12T10:46:27.564Z,21.95
2023-05-12T10:48:57.454Z,22.71
2023-05-12T10:51:28.522Z,22.91
2023-05-12T10:54:03.747Z,23.04
2023-05-12T10:56:41.596Z,22.09
2023-05-12T10:59:14.555Z,22.05
2023-05-12T11:01:44.553Z,22.43
2023-05-12T11:04:14.417Z,22.69
2023-05-12T11:06:44.780Z,23.30
2023-05-12T11:09:15.266Z,22.31
2023-05-12T11:11:45.753Z,22.95
2023-05-12T11:14:14.238Z,22.69
2023-05-12T11:16:46.263Z,22.67
2023-05-12T11:19:14.413Z,22.63
2023-05-12T11:21:42.546Z,23.95
2023-05-12T11:24:14.859Z,24.12
2023-05-12T11:26:44.148Z,23.20
2023-05-12T11:29:12.236Z,24.27
2023-05-12T11:31:40.162Z,23.64
2023-05-12T11:34:13.103Z,23.82
2023-05-12T11:36:44.102Z,24.01
2023-05-12T11:39:17.477Z,24.25
2023-05-12T11:41:46.986Z,24.77
2023-05-12T11:44:19.057Z,24.99
2023-05-12T11:46:57.514Z,24.92
2023-05-12T11:49:26.136Z,23.58
2023-05-12T11:51:54.973Z,23.57
2023-05-12T11:54:23.629Z,24.36
2023-05-12T11:56:54.272Z,23.85
2023-05-12T11:59:30.811Z,24.77
2023-05-12T12:01:59.683Z,24.26
2023-05-12T12:04:39.370Z,24.49
2023-05-12T12:07:08.284Z,24.48
2023-05-12T12:09:37.754Z,25.09
2023-05-12T12:12:09.632Z,23.70
2023-05-12T12:14:41.397Z,23.81
2023-05-12T12:17:09.261Z,23.76
2023-05-12T12:19:37.173Z,23.96
2023-05-12T12:22:05.624Z,24.70
2023-05-12T12:24:33.535Z,26.48
2023-05-12T12:27:01.671Z,27.08
2023-05-12T12:29:31.005Z,28.18
2023-05-12T12:31:59.023Z,28.66
2023-05-12T12:34:26.923Z,28.18
2023-05-12T12:36:54.767Z,26.31
2023-05-12T12:39:23.231Z,25.40
2023-05-12T12:41:51.241Z,27.04
2023-05-12T12:44:19.137Z,28.85
2023-05-12T12:46:48.672Z,29.20
2023-05-12T12:49:16.777Z,29.15
2023-05-12T12:51:46.674Z,29.18
2023-05-12T12:54:15.717Z,29.00
2023-05-12T12:56:44.285Z,27.16
2023-05-12T12:59:13.218Z,26.27
2023-05-12T13:01:41.464Z,25.65
2023-05-12T13:04:10.911Z,25.15
2023-05-12T13:06:39.197Z,25.12
2023-05-12T13:09:07.034Z,25.03
2023-05-12T13:11:35.050Z,24.17
2023-05-12T13:14:04.271Z,24.39
2023-05-12T13:16:32.393Z,24.50
2023-05-12T13:19:00.804Z,24.28
2023-05-12T13:21:30.460Z,24.83
2023-05-12T13:23:58.392Z,24.72
2023-05-12T13:26:26.718Z,24.43
2023-05-12T13:28:54.951Z,24.70
2023-05-12T13:31:22.988Z,25.07
2023-05-12T13:33:51.089Z,25.85
2023-05-12T13:36:19.300Z,29.91
2023-05-12T13:38:51.341Z,30.91
2023-05-12T13:41:19.494Z,29.54
2023-05-12T13:43:48.201Z,30.09
2023-05-12T13:46:16.074Z,29.92
2023-05-12T13:48:43.991Z,27.72
2023-05-12T13:51:11.941Z,26.32
2023-05-12T13:53:40.110Z,25.90
2023-05-12T13:56:17.474Z,25.54
2023-05-12T13:58:45.758Z,26.45
2023-05-12T14:01:13.881Z,26.17
2023-05-12T14:03:42.108Z,28.02
2023-05-12T14:06:12.097Z,27.56
2023-05-12T14:08:41.613Z,26.39
2023-05-12T14:11:10.021Z,29.76
2023-05-12T14:13:39.304Z,31.64
2023-05-12T14:16:08.108Z,30.24
2023-05-12T14:18:36.054Z,28.75
2023-05-12T14:21:04.199Z,29.56
2023-05-12T14:23:32.119Z,29.30
2023-05-12T14:25:59.999Z,28.33
2023-05-12T14:28:28.960Z,26.91
2023-05-12T14:30:58.529Z,26.63
2023-05-12T14:33:26.493Z,24.29
2023-05-12T14:36:05.941Z,24.06
2023-05-12T14:38:34.829Z,24.52
2023-05-12T14:41:02.749Z,24.92
2023-05-12T14:43:30.661Z,24.94
2023-05-12T14:46:00.622Z,25.27
2023-05-12T14:48:28.694Z,24.95
2023-05-12T14:50:57.798Z,25.27
2023-05-12T14:53:25.775Z,26.14
2023-05-12T14:55:53.623Z,27.35
2023-05-12T14:58:23.906Z,25.11
2023-05-12T15:00:52.240Z,27.07
2023-05-12T15:03:21.776Z,25.22
2023-05-12T15:08:21.505Z,24.52
2023-05-12T15:10:49.884Z,25.02
2023-05-12T15:13:20.148Z,24.14
2023-05-12T15:15:48.264Z,25.73
2023-05-12T15:18:16.195Z,25.04
2023-05-12T15:20:45.908Z,24.97
2023-05-12T15:23:13.893Z,24.87
2023-05-12T15:25:42.237Z,24.09
2023-05-12T15:28:10.196Z,24.43
2023-05-12T15:30:38.373Z,24.89
2023-05-12T15:33:06.767Z,24.00
2023-05-12T15:35:35.267Z,24.08
2023-05-12T15:38:04.735Z,24.00
2023-05-12T15:40:32.720Z,24.01
2023-05-12T15:43:00.782Z,24.61
2023-05-12T15:45:28.788Z,23.66
2023-05-12T15:47:56.804Z,23.69
2023-05-12T15:50:24.886Z,22.55
2023-05-12T15:52:52.893Z,22.70
2023-05-12T15:55:22.758Z,23.57
2023-05-12T15:57:51.096Z,23.54
2023-05-12T16:00:20.475Z,23.82
2023-05-12T16:02:49.824Z,24.13
2023-05-12T16:05:18.956Z,24.08
2023-05-12T16:07:48.429Z,24.73
2023-05-12T16:10:17.460Z,28.14
2023-05-12T16:12:48.010Z,29.49
2023-05-12T16:15:15.928Z,28.63
2023-05-12T16:17:43.906Z,29.34
2023-05-12T16:20:12.746Z,30.33
2023-05-12T16:22:40.691Z,29.77
2023-05-12T16:25:09.423Z,30.26
2023-05-12T16:27:38.882Z,28.18
2023-05-12T16:30:09.604Z,27.20
2023-05-12T16:32:37.552Z,26.98
2023-05-12T16:35:06.373Z,26.78
2023-05-12T16:37:34.295Z,26.74
2023-05-12T16:40:02.345Z,26.63
2023-05-12T16:42:30.830Z,27.14
2023-05-12T16:44:59.042Z,27.84
2023-05-12T16:47:29.616Z,27.00
2023-05-12T16:49:59.287Z,26.62
2023-05-12T16:52:27.785Z,25.20
2023-05-12T16:54:56.949Z,25.56
2023-05-12T16:57:25.166Z,25.58
2023-05-12T16:59:53.157Z,25.69
2023-05-12T17:02:21.185Z,25.05
2023-05-12T17:04:53.352Z,24.77
2023-05-12T17:07:25.526Z,25.11
2023-05-12T17:09:53.683Z,24.79
2023-05-12T17:12:22.587Z,24.46
2023-05-12T17:15:03.378Z,24.50
2023-05-12T17:17:34.901Z,23.96
2023-05-12T17:20:06.196Z,23.83
2023-05-12T17:22:37.320Z,24.11
2023-05-12T17:25:06.094Z,23.78
2023-05-12T17:27:34.297Z,24.02
2023-05-12T17:30:04.361Z,24.69
2023-05-12T17:32:32.699Z,24.41
2023-05-12T17:35:01.009Z,24.30
2023-05-12T17:37:30.348Z,24.15
2023-05-12T17:39:59.276Z,23.60
2023-05-12T17:42:29.950Z,23.63
2023-05-12T17:44:57.898Z,23.17
2023-05-12T17:47:25.982Z,23.20
2023-05-12T17:49:54.093Z,23.05
2023-05-12T17:52:28.827Z,22.61
2023-05-12T17:54:58.287Z,22.90
2023-05-12T17:57:26.185Z,22.36
2023-05-12T17:59:54.199Z,22.50
2023-05-12T18:02:25.978Z,22.16
2023-05-12T18:04:54.772Z,22.24
2023-05-12T18:07:23.212Z,22.42
2023-05-12T18:09:51.171Z,22.34
2023-05-12T18:12:20.675Z,22.06
2023-05-12T18:14:48.629Z,21.82
2023-05-12T18:17:16.705Z,21.78
2023-05-12T18:19:44.886Z,21.54
2023-05-12T18:22:13.152Z,21.57
2023-05-12T18:24:41.038Z,21.55
2023-05-12T18:27:08.945Z,21.28
2023-05-12T18:29:38.211Z,21.48
2023-05-12T18:32:06.942Z,21.26
2023-05-12T18:34:35.142Z,21.33
2023-05-12T18:37:03.141Z,20.93
2023-05-12T18:39:31.486Z,20.81
2023-05-12T18:41:59.412Z,20.87
2023-05-12T18:44:27.401Z,20.65
2023-05-12T18:46:57.212Z,20.41
2023-05-12T18:49:25.338Z,20.32
2023-05-12T18:51:53.247Z,20.14
2023-05-12T18:54:21.244Z,19.87
2023-05-12T18:56:50.791Z,19.80
2023-05-12T18:59:18.921Z,19.97
2023-05-12T19:01:47.325Z,19.87
2023-05-12T19:04:16.914Z,19.94
2023-05-12T19:06:44.836Z,19.90
2023-05-12T19:09:12.925Z,19.46
2023-05-12T19:11:41.248Z,19.24
2023-05-12T19:14:09.264Z,18.93
2023-05-12T19:16:38.288Z,19.00
2023-05-12T19:19:06.595Z,18.80
2023-05-12T19:21:36.209Z,18.34
2023-05-12T19:24:04.682Z,18.54
2023-05-12T19:26:32.630Z,18.54
2023-05-12T19:29:02.079Z,17.96
2023-05-12T19:31:31.330Z,17.82
2023-05-12T19:33:59.553Z,17.58
2023-05-12T19:36:28.830Z,17.51
2023-05-12T19:38:59.659Z,17.49
2023-05-12T19:41:28.790Z,17.66
2023-05-12T19:43:57.179Z,17.81
2023-05-12T19:46:25.455Z,17.55
2023-05-12T19:48:53.758Z,17.14
2023-05-12T19:51:21.886Z,17.14
2023-05-12T19:53:49.858Z,17.14
2023-05-12T19:56:19.757Z,17.03
2023-05-12T19:58:47.977Z,16.75
2023-05-12T20:01:16.189Z,16.73
2023-05-12T20:03:44.147Z,16.81
2023-05-12T20:06:12.295Z,17.06
2023-05-12T20:08:40.207Z,16.92
2023-05-12T20:11:08.286Z,16.71
2023-05-12T20:13:37.533Z,16.91
2023-05-12T20:16:05.851Z,16.63
2023-05-12T20:18:33.787Z,16.41
2023-05-12T20:21:01.782Z,16.43
2023-05-12T20:23:29.705Z,16.20
2023-05-12T20:25:57.616Z,16.21
2023-05-12T20:28:25.526Z,16.11
2023-05-12T20:30:54.853Z,16.34
2023-05-12T20:33:22.705Z,16.29
2023-05-12T20:35:50.664Z,16.32
2023-05-12T20:38:18.563Z,16.02
2023-05-12T20:40:46.489Z,15.94
2023-05-12T20:43:14.639Z,15.89
2023-05-12T20:45:42.667Z,15.96
2023-05-12T20:48:12.110Z,15.77
2023-05-12T20:50:40.104Z,15.69
2023-05-12T20:53:07.922Z,15.84
2023-05-12T20:55:35.900Z,15.88
2023-05-12T20:58:03.750Z,15.79
2023-05-12T21:00:31.720Z,15.23
2023-05-12T21:03:00.082Z,15.72
2023-05-12T21:05:29.795Z,15.65
2023-05-12T21:07:59.879Z,15.07
2023-05-12T21:10:28.114Z,15.48
2023-05-12T21:12:56.090Z,15.14
2023-05-12T21:15:25.975Z,15.46
2023-05-12T21:17:54.493Z,14.77
2023-05-12T21:20:22.598Z,15.19
2023-05-12T21:22:52.005Z,14.84
2023-05-12T21:25:20.072Z,14.70
2023-05-12T21:27:48.440Z,14.51
2023-05-12T21:30:16.608Z,14.47
2023-05-12T21:32:44.535Z,14.77
2023-05-12T21:35:12.503Z,15.10
2023-05-12T21:37:40.364Z,14.84
2023-05-12T21:40:11.596Z,14.84
2023-05-12T21:42:39.565Z,15.24
2023-05-12T21:45:08.410Z,13.90
2023-05-12T21:47:36.784Z,13.66
2023-05-12T21:50:05.110Z,13.72
2023-05-12T21:52:33.113Z,14.63
2023-05-12T21:55:03.193Z,14.33
2023-05-12T21:57:32.472Z,14.26
2023-05-12T22:00:03.498Z,14.48
2023-05-12T22:02:37.395Z,14.45
2023-05-12T22:05:06.362Z,14.58
2023-05-12T22:07:34.238Z,14.56
2023-05-12T22:10:02.291Z,14.33
2023-05-12T22:12:30.136Z,14.53
2023-05-12T22:14:59.399Z,14.18
2023-05-12T22:17:27.301Z,14.28
2023-05-12T22:19:55.243Z,14.58
2023-05-12T22:22:26.475Z,14.11
2023-05-12T22:24:54.456Z,14.27
2023-05-12T22:27:22.500Z,14.18
2023-05-12T22:29:50.506Z,14.01
2023-05-12T22:32:19.729Z,14.17
2023-05-12T22:34:47.626Z,13.93
2023-05-12T22:37:15.743Z,13.90
2023-05-12T22:39:43.695Z,13.96
2023-05-12T22:42:11.598Z,13.98
2023-05-12T22:44:39.456Z,14.09
2023-05-12T22:47:08.031Z,14.10
2023-05-12T22:49:37.360Z,14.12
2023-05-12T22:52:06.006Z,13.40
2023-05-12T22:54:34.249Z,13.77
2023-05-12T22:57:02.180Z,13.50
2023-05-12T22:59:30.055Z,13.44
2023-05-12T23:01:57.911Z,13.38
2023-05-12T23:04:26.013Z,13.31
2023-05-12T23:06:55.276Z,13.11
2023-05-12T23:09:23.232Z,13.36
2023-05-12T23:11:51.336Z,13.78
2023-05-12T23:14:19.246Z,13.88
2023-05-12T23:16:48.014Z,13.03
2023-05-12T23:19:16.066Z,12.94
2023-05-12T23:21:43.931Z,12.86
2023-05-12T23:24:13.291Z,12.99
2023-05-12T23:26:41.503Z,13.28
2023-05-12T23:29:09.337Z,13.40
2023-05-12T23:31:37.320Z,13.34
2023-05-12T23:34:05.653Z,13.04
2023-05-12T23:36:33.619Z,13.18
2023-05-12T23:39:01.604Z,12.96
2023-05-12T23:41:31.790Z,12.78
2023-05-12T23:43:59.823Z,12.93
2023-05-12T23:46:27.778Z,12.75
2023-05-12T23:48:56.321Z,11.73
2023-05-12T23:51:24.420Z,12.31
2023-05-12T23:53:52.587Z,12.00
2023-05-12T23:56:21.638Z,11.60
2023-05-12T23:58:50.930Z,11.53
